Time;durP1;ratioP1;P1;durP2;ratioP2;P2;SDS_P1;SDS_P2;PMS_P1;PMS_P2;Temp;Humidity;BMP_temperature;BMP_pressure;BME280_temperature;BME280_humidity;BME280_pressure;Samples;Min_cycle;Max_cycle;Signal;HPM_P1;HPM_P2
2022/07/24 00:00:48;;;;;;;15.27;11.82;;;;;;;17.77;nan;101737.00;5052683;28;20392;-50
2022/07/24 00:03:13;;;;;;;13.13;11.75;;;;;;;18.08;nan;101786.13;5052473;28;20049;-53
2022/07/24 00:05:39;;;;;;;13.30;11.90;;;;;;;17.79;nan;101732.47;5051358;28;20036;-48
2022/07/24 00:08:04;;;;;;;13.65;11.57;;;;;;;17.91;nan;101754.97;5068005;28;20040;-50
2022/07/24 00:10:31;;;;;;;12.40;11.10;;;;;;;17.99;nan;101782.09;5067653;28;20447;-52
2022/07/24 00:12:56;;;;;;;12.55;10.88;;;;;;;17.63;nan;101709.31;5052382;28;20476;-51
2022/07/24 00:15:21;;;;;;;16.10;11.98;;;;;;;17.90;nan;101758.56;5051466;28;20090;-53
2022/07/24 00:17:47;;;;;;;13.77;12.38;;;;;;;17.82;nan;101760.75;5051329;28;20535;-51
2022/07/24 00:20:12;;;;;;;15.20;12.50;;;;;;;17.72;nan;101746.13;5050869;28;20436;-48
2022/07/24 00:22:37;;;;;;;16.52;12.30;;;;;;;17.54;nan;101723.91;5067457;28;20041;-57
2022/07/24 00:25:03;;;;;;;15.82;12.27;;;;;;;17.39;nan;101725.47;5067714;28;20037;-49
2022/07/24 00:27:28;;;;;;;15.43;11.93;;;;;;;17.61;nan;101765.28;5067726;28;20044;-54
2022/07/24 00:29:53;;;;;;;14.25;11.68;;;;;;;17.62;nan;101771.47;5067815;28;20045;-50
2022/07/24 00:32:19;;;;;;;16.23;12.00;;;;;;;17.28;nan;101719.78;5052405;28;20029;-54
2022/07/24 00:34:44;;;;;;;14.50;12.35;;;;;;;17.47;nan;101764.16;5051817;28;20037;-51
2022/07/24 00:37:09;;;;;;;14.55;12.70;;;;;;;17.53;nan;101779.84;5052378;28;20036;-53
2022/07/24 00:39:35;;;;;;;14.70;13.30;;;;;;;17.40;nan;101751.13;5050908;28;20511;-51
2022/07/24 00:42:00;;;;;;;15.45;13.18;;;;;;;17.50;nan;101772.00;5052387;28;20082;-56
2022/07/24 00:44:25;;;;;;;18.17;13.63;;;;;;;17.39;nan;101773.38;5052279;28;20071;-49
2022/07/24 00:46:51;;;;;;;16.98;13.02;;;;;;;17.14;nan;101724.00;5052231;28;20243;-53
2022/07/24 00:49:18;;;;;;;18.80;12.90;;;;;;;17.51;nan;101768.44;5052098;28;20104;-51
2022/07/24 00:51:45;;;;;;;18.10;12.68;;;;;;;17.55;nan;101762.03;5067592;28;20029;-51
2022/07/24 00:54:12;;;;;;;14.90;10.98;;;;;;;17.31;nan;101727.59;5052415;28;20040;-53
2022/07/24 00:56:38;;;;;;;14.15;12.25;;;;;;;17.35;nan;101717.69;5067516;28;20021;-48
2022/07/24 00:59:04;;;;;;;14.23;11.30;;;;;;;17.71;nan;101773.72;5051981;28;20112;-48
2022/07/24 01:01:30;;;;;;;14.73;11.90;;;;;;;17.75;nan;101776.16;5067531;28;20065;-51
2022/07/24 01:03:55;;;;;;;17.20;12.27;;;;;;;17.78;nan;101762.69;5051615;28;20052;-52
2022/07/24 01:06:21;;;;;;;12.90;11.48;;;;;;;17.51;nan;101716.06;5052050;28;20040;-50
2022/07/24 01:08:46;;;;;;;12.90;11.05;;;;;;;17.76;nan;101763.69;5052040;28;20116;-49
2022/07/24 01:11:12;;;;;;;17.50;11.80;;;;;;;17.75;nan;101759.31;5067040;28;20041;-53
2022/07/24 01:13:38;;;;;;;16.88;11.05;;;;;;;17.79;nan;101748.44;5067588;28;20545;-52
2022/07/24 01:16:03;;;;;;;11.50;10.20;;;;;;;17.80;nan;101751.97;5051909;28;20085;-57
2022/07/24 01:18:29;;;;;;;12.43;10.85;;;;;;;17.52;nan;101692.94;5051108;28;20033;-54
2022/07/24 01:20:55;;;;;;;11.35;10.25;;;;;;;17.78;nan;101735.19;5051802;28;20396;-54
2022/07/24 01:23:21;;;;;;;13.65;11.65;;;;;;;17.50;nan;101686.84;5050291;28;20508;-54
2022/07/24 01:25:47;;;;;;;14.18;10.65;;;;;;;17.50;nan;101686.84;5067215;28;20036;-54
2022/07/24 01:28:12;;;;;;;13.93;11.23;;;;;;;17.83;nan;101741.19;5052022;28;20037;-55
2022/07/24 01:30:37;;;;;;;16.40;11.27;;;;;;;17.86;nan;101741.03;5067454;28;20427;-52
2022/07/24 01:33:03;;;;;;;17.65;11.10;;;;;;;17.51;nan;101696.56;5050168;28;20119;-51
2022/07/24 01:35:28;;;;;;;15.20;10.80;;;;;;;17.78;nan;101735.19;5050658;28;20086;-52
2022/07/24 01:37:54;;;;;;;13.80;10.48;;;;;;;17.83;nan;101749.16;5052129;28;20520;-52
2022/07/24 01:40:20;;;;;;;13.45;10.07;;;;;;;17.84;nan;101745.56;5051015;28;20068;-52
2022/07/24 01:42:46;;;;;;;11.25;9.95;;;;;;;17.83;nan;101744.69;5051857;28;20040;-53
2022/07/24 01:45:11;;;;;;;15.70;11.05;;;;;;;17.78;nan;101733.41;5066968;28;20037;-52
2022/07/24 01:47:37;;;;;;;10.65;9.48;;;;;;;17.53;nan;101692.00;5053340;28;20033;-51
2022/07/24 01:50:03;;;;;;;13.63;10.77;;;;;;;17.81;nan;101737.69;5053882;28;20037;-56
2022/07/24 01:52:28;;;;;;;15.93;9.25;;;;;;;17.84;nan;101740.22;5054934;28;20037;-47
2022/07/24 01:54:53;;;;;;;10.05;9.05;;;;;;;17.73;nan;101718.56;5070169;28;20041;-55
2022/07/24 01:57:19;;;;;;;12.98;9.18;;;;;;;17.80;nan;101728.88;5054829;28;20518;-50
2022/07/24 01:59:44;;;;;;;13.40;9.65;;;;;;;17.78;nan;101732.53;5054561;28;20037;-52
2022/07/24 02:02:09;;;;;;;13.70;9.50;;;;;;;17.45;nan;101674.59;5055046;28;20048;-53
2022/07/24 02:04:35;;;;;;;10.73;9.00;;;;;;;17.77;nan;101729.03;5054920;28;20048;-50
2022/07/24 02:07:00;;;;;;;10.15;9.07;;;;;;;17.76;nan;101721.09;5054990;28;20041;-48
2022/07/24 02:09:26;;;;;;;11.73;9.85;;;;;;;17.72;nan;101723.03;5054379;28;20413;-49
2022/07/24 02:11:52;;;;;;;12.68;9.20;;;;;;;17.51;nan;101677.94;5054396;28;20037;-52
2022/07/24 02:14:17;;;;;;;13.48;8.88;;;;;;;17.64;nan;101705.69;5070241;28;20036;-52
2022/07/24 02:16:42;;;;;;;13.13;9.02;;;;;;;17.38;nan;101662.53;5054702;28;20029;-52
2022/07/24 02:19:07;;;;;;;10.60;8.85;;;;;;;17.38;nan;101662.53;5054594;28;20033;-54
2022/07/24 02:21:33;;;;;;;12.40;8.25;;;;;;;17.65;nan;101707.44;5054375;28;20037;-49
2022/07/24 02:23:58;;;;;;;10.07;7.85;;;;;;;17.33;nan;101656.56;5054480;28;20063;-51
2022/07/24 02:26:23;;;;;;;11.82;8.23;;;;;;;17.54;nan;101694.63;5054531;28;20431;-53
2022/07/24 02:28:49;;;;;;;9.27;8.00;;;;;;;17.49;nan;101699.28;5054468;28;20064;-50
2022/07/24 02:31:14;;;;;;;12.63;8.15;;;;;;;17.18;nan;101654.63;5054017;28;20051;-48
2022/07/24 02:33:39;;;;;;;9.40;7.28;;;;;;;17.40;nan;101707.69;5052979;28;20032;-54
2022/07/24 02:36:05;;;;;;;10.55;7.95;;;;;;;17.39;nan;101706.84;5054187;28;20040;-50
2022/07/24 02:38:31;;;;;;;9.88;7.63;;;;;;;17.34;nan;101700.84;5053123;28;20029;-48
2022/07/24 02:40:56;;;;;;;10.20;8.23;;;;;;;17.40;nan;101703.22;5054103;28;20045;-49
2022/07/24 02:43:21;;;;;;;11.30;7.55;;;;;;;17.41;nan;101696.97;5069713;28;20032;-52
2022/07/24 02:45:47;;;;;;;11.77;7.22;;;;;;;17.43;nan;101696.91;5054009;28;20029;-50
2022/07/24 02:48:12;;;;;;;10.05;7.20;;;;;;;17.41;nan;101690.78;5054173;28;20083;-56
2022/07/24 02:50:38;;;;;;;10.30;7.43;;;;;;;17.34;nan;101684.03;5052771;28;20060;-53
2022/07/24 02:53:04;;;;;;;10.43;7.50;;;;;;;17.11;nan;101631.03;5053762;28;20060;-49
2022/07/24 02:55:30;;;;;;;11.70;7.28;;;;;;;17.44;nan;101683.53;5069193;28;20025;-52
2022/07/24 02:57:56;;;;;;;10.77;7.90;;;;;;;17.06;nan;101617.97;5053921;28;20412;-49
2022/07/24 03:00:21;;;;;;;11.30;6.55;;;;;;;17.40;nan;101683.72;5052657;28;20029;-54
2022/07/24 03:02:46;;;;;;;11.90;7.15;;;;;;;17.41;nan;101689.00;5053768;28;20035;-57
2022/07/24 03:05:12;;;;;;;9.98;7.13;;;;;;;17.22;nan;101660.69;5053744;28;20033;-55
2022/07/24 03:07:37;;;;;;;7.75;6.95;;;;;;;16.90;nan;101610.78;5053548;28;20427;-54
2022/07/24 03:10:05;;;;;;;10.68;7.82;;;;;;;17.19;nan;101677.63;5053488;28;20431;-56
2022/07/24 03:12:30;;;;;;;10.07;8.52;;;;;;;17.14;nan;101666.34;5053438;28;20037;-54
2022/07/24 03:14:56;;;;;;;14.02;8.27;;;;;;;16.70;nan;101591.25;5053719;28;20039;-51
2022/07/24 03:17:21;;;;;;;9.85;8.02;;;;;;;16.71;nan;101603.63;5053293;28;20456;-54
2022/07/24 03:19:46;;;;;;;11.93;7.68;;;;;;;16.71;nan;101608.94;5053351;28;20029;-57
2022/07/24 03:22:12;;;;;;;11.45;7.93;;;;;;;17.04;nan;101665.06;5052231;28;20037;-50
2022/07/24 03:24:37;;;;;;;15.52;8.75;;;;;;;17.04;nan;101662.38;5053398;28;20080;-51
2022/07/24 03:27:02;;;;;;;9.02;7.75;;;;;;;17.01;nan;101648.38;5052580;28;20039;-50
2022/07/24 03:29:28;;;;;;;8.00;7.20;;;;;;;16.99;nan;101651.06;5053371;28;20119;-52
2022/07/24 03:31:53;;;;;;;8.45;7.65;;;;;;;16.96;nan;101648.56;5053523;28;20221;-56
2022/07/24 03:34:18;;;;;;;10.13;6.95;;;;;;;16.97;nan;101654.75;5053179;28;20069;-49
2022/07/24 03:36:44;;;;;;;8.85;7.60;;;;;;;16.86;nan;101641.94;5053097;28;20151;-52
2022/07/24 03:39:09;;;;;;;10.63;7.03;;;;;;;16.88;nan;101637.41;5052831;28;20396;-54
2022/07/24 03:41:34;;;;;;;10.20;6.72;;;;;;;16.51;nan;101579.72;5068655;28;20088;-52
2022/07/24 03:44:00;;;;;;;11.23;7.45;;;;;;;16.87;nan;101657.81;5068509;28;20048;-49
2022/07/24 03:46:27;;;;;;;15.07;7.75;;;;;;;16.79;nan;101648.47;5052878;28;20040;-51
2022/07/24 03:48:53;;;;;;;9.27;7.25;;;;;;;16.56;nan;101614.09;5051534;28;20033;-51
2022/07/24 03:51:18;;;;;;;6.75;6.05;;;;;;;16.81;nan;101654.59;5052897;28;20503;-54
2022/07/24 03:53:43;;;;;;;12.73;6.90;;;;;;;16.80;nan;101656.38;5052736;28;20055;-56
2022/07/24 03:56:09;;;;;;;7.75;6.65;;;;;;;16.42;nan;101590.75;5052903;28;20095;-51
2022/07/24 03:58:35;;;;;;;9.55;7.18;;;;;;;16.46;nan;101599.47;5068107;28;20033;-53
2022/07/24 04:01:01;;;;;;;11.07;6.68;;;;;;;16.60;nan;101628.97;5068158;28;20029;-51
2022/07/24 04:03:27;;;;;;;8.13;6.68;;;;;;;16.67;nan;101643.69;5051475;28;20040;-52
2022/07/24 04:05:52;;;;;;;10.07;6.78;;;;;;;16.79;nan;101669.75;5051404;28;20037;-55
2022/07/24 04:08:18;;;;;;;9.95;6.53;;;;;;;16.44;nan;101599.50;5052432;28;20049;-52
2022/07/24 04:10:43;;;;;;;9.10;6.57;;;;;;;16.77;nan;101653.88;5052156;28;20087;-51
2022/07/24 04:13:08;;;;;;;8.13;6.70;;;;;;;16.41;nan;101585.50;5052627;28;20037;-51
2022/07/24 04:15:34;;;;;;;10.35;6.07;;;;;;;16.64;nan;101646.50;5052383;28;20048;-49
2022/07/24 04:17:59;;;;;;;8.48;6.68;;;;;;;16.69;nan;101640.06;5052519;28;20041;-53
2022/07/24 04:20:24;;;;;;;9.18;5.75;;;;;;;16.67;nan;101647.22;5052311;28;20082;-54
2022/07/24 04:22:50;;;;;;;8.32;6.20;;;;;;;16.70;nan;101646.22;5052198;28;20041;-49
2022/07/24 04:25:15;;;;;;;12.23;6.45;;;;;;;16.43;nan;101599.59;5051227;28;20361;-52
2022/07/24 04:27:40;;;;;;;9.90;6.80;;;;;;;16.63;nan;101637.69;5052582;28;20162;-55
2022/07/24 04:30:06;;;;;;;10.35;6.47;;;;;;;16.66;nan;101642.00;5052437;28;20512;-53
2022/07/24 04:32:32;;;;;;;10.35;6.05;;;;;;;16.69;nan;101639.19;5052381;28;20059;-51
2022/07/24 04:34:57;;;;;;;7.80;5.60;;;;;;;16.47;nan;101607.34;5052118;28;20040;-54
2022/07/24 04:37:22;;;;;;;7.15;5.35;;;;;;;16.81;nan;101659.91;5067442;28;20433;-53
2022/07/24 04:39:48;;;;;;;8.77;5.53;;;;;;;16.47;nan;101602.03;5052114;28;20135;-53
2022/07/24 04:42:14;;;;;;;6.32;4.78;;;;;;;16.45;nan;101580.00;5052916;28;20043;-55
2022/07/24 04:44:39;;;;;;;7.68;5.22;;;;;;;16.81;nan;101654.59;5052238;28;20032;-54
2022/07/24 04:47:05;;;;;;;7.07;5.00;;;;;;;16.84;nan;101654.47;5052573;28;20116;-55
2022/07/24 04:49:30;;;;;;;7.93;5.60;;;;;;;16.46;nan;101596.81;5052129;28;20059;-53
2022/07/24 04:51:55;;;;;;;8.20;5.05;;;;;;;16.52;nan;101602.69;5051906;28;20448;-55
2022/07/24 04:54:21;;;;;;;6.22;5.45;;;;;;;16.82;nan;101658.97;5051805;28;20041;-52
2022/07/24 04:56:46;;;;;;;6.25;5.00;;;;;;;16.94;nan;101677.03;5050606;28;20037;-53
2022/07/24 04:59:11;;;;;;;9.13;5.20;;;;;;;16.69;nan;101623.25;5052001;28;20037;-55
2022/07/24 05:01:38;;;;;;;8.10;5.82;;;;;;;16.33;nan;101560.16;5067356;28;20064;-54
2022/07/24 05:04:03;;;;;;;9.85;5.43;;;;;;;16.96;nan;101669.00;5067223;28;20044;-57
2022/07/24 05:06:29;;;;;;;6.53;4.70;;;;;;;16.61;nan;101602.31;5051580;28;20041;-53
2022/07/24 05:08:54;;;;;;;8.30;4.95;;;;;;;16.85;nan;101633.09;5051801;28;20040;-54
2022/07/24 05:11:19;;;;;;;7.72;4.85;;;;;;;16.95;nan;101638.88;5051658;28;20033;-57
2022/07/24 05:13:45;;;;;;;7.90;5.38;;;;;;;17.15;nan;101667.19;5051981;28;20079;-49
2022/07/24 05:16:10;;;;;;;6.75;5.00;;;;;;;16.82;nan;101605.78;5051792;28;20041;-51
2022/07/24 05:18:35;;;;;;;5.03;4.50;;;;;;;17.30;nan;101675.34;5051766;28;20138;-52
2022/07/24 05:21:01;;;;;;;6.70;5.03;;;;;;;16.99;nan;101618.31;5050359;28;20503;-55
2022/07/24 05:23:26;;;;;;;4.97;4.20;;;;;;;17.03;nan;101628.75;5054360;28;20060;-54
2022/07/24 05:25:51;;;;;;;5.00;3.90;;;;;;;17.52;nan;101703.59;5055484;28;20029;-50
2022/07/24 05:28:17;;;;;;;6.25;4.18;;;;;;;17.56;nan;101703.41;5055313;28;20073;-49
2022/07/24 05:30:42;;;;;;;6.88;4.22;;;;;;;17.66;nan;101702.03;5070686;28;20396;-57
2022/07/24 05:33:07;;;;;;;5.47;3.92;;;;;;;17.37;nan;101633.31;5070741;28;20025;-55
2022/07/24 05:35:33;;;;;;;7.15;4.13;;;;;;;17.83;nan;101695.91;5055441;28;20384;-51
2022/07/24 05:37:58;;;;;;;6.82;4.40;;;;;;;17.53;nan;101623.66;5053775;28;20028;-48
2022/07/24 05:40:24;;;;;;;7.20;3.90;;;;;;;18.15;nan;101700.50;5055681;28;20220;-51
2022/07/24 05:42:49;;;;;;;6.13;4.20;;;;;;;18.37;nan;101708.25;5055197;28;20033;-51
2022/07/24 05:45:14;;;;;;;6.95;3.90;;;;;;;18.68;nan;101702.25;5053877;28;20384;-52
2022/07/24 05:47:41;;;;;;;7.03;3.70;;;;;;;18.96;nan;101707.84;5054957;28;20029;-52
2022/07/24 05:50:07;;;;;;;6.90;3.92;;;;;;;18.85;nan;101664.88;5054842;28;20040;-54
2022/07/24 05:52:33;;;;;;;4.30;3.63;;;;;;;19.24;nan;101717.88;5070231;28;20040;-51
2022/07/24 05:54:58;;;;;;;5.20;3.67;;;;;;;19.43;nan;101732.88;5054818;28;20396;-53
2022/07/24 05:57:23;;;;;;;5.35;3.30;;;;;;;19.43;nan;101675.94;5070287;28;20028;-55
2022/07/24 05:59:49;;;;;;;5.50;3.75;;;;;;;19.86;nan;101725.97;5054897;28;20037;-56
2022/07/24 06:02:14;;;;;;;4.75;3.35;;;;;;;19.97;nan;101715.53;5070351;28;20116;-51
2022/07/24 06:04:41;;;;;;;6.40;3.38;;;;;;;19.84;nan;101658.41;5054575;28;20045;-50
2022/07/24 06:07:08;;;;;;;5.88;3.15;;;;;;;20.27;nan;101726.28;5054594;28;20388;-52
2022/07/24 06:09:34;;;;;;;5.18;3.33;;;;;;;19.97;nan;101663.88;5054788;28;20037;-49
2022/07/24 06:11:59;;;;;;;5.00;3.22;;;;;;;20.17;nan;101687.63;5054751;28;20025;-54
2022/07/24 06:14:25;;;;;;;4.30;3.40;;;;;;;20.31;nan;101721.63;5053299;28;20071;-57
2022/07/24 06:16:50;;;;;;;6.45;3.60;;;;;;;20.20;nan;101712.38;5054689;28;20033;-52
2022/07/24 06:19:15;;;;;;;6.40;3.70;;;;;;;20.07;nan;101724.75;5054448;28;20037;-54
2022/07/24 06:21:40;;;;;;;7.20;3.25;;;;;;;19.75;nan;101687.47;5069634;28;20033;-55
2022/07/24 06:24:06;;;;;;;4.95;3.20;;;;;;;19.91;nan;101715.88;5069923;28;20092;-52
2022/07/24 06:26:31;;;;;;;4.40;2.97;;;;;;;19.54;nan;101663.69;5054473;28;20029;-52
2022/07/24 06:28:56;;;;;;;4.45;2.92;;;;;;;19.94;nan;101728.19;5054552;28;20472;-56
2022/07/24 06:31:22;;;;;;;3.53;3.05;;;;;;;20.01;nan;101719.75;5054222;28;20069;-50
2022/07/24 06:33:47;;;;;;;5.65;3.10;;;;;;;19.81;nan;101679.97;5053831;28;20124;-56
2022/07/24 06:36:12;;;;;;;3.05;2.58;;;;;;;20.37;nan;101724.81;5054181;28;20080;-54
2022/07/24 06:38:38;;;;;;;3.75;3.03;;;;;;;20.59;nan;101729.72;5054302;28;20458;-50
2022/07/24 06:41:03;;;;;;;5.55;2.83;;;;;;;20.73;nan;101719.06;5052933;28;20044;-54
2022/07/24 06:43:29;;;;;;;4.05;3.10;;;;;;;20.95;nan;101746.25;5054059;28;20396;-52
2022/07/24 06:45:54;;;;;;;5.68;3.03;;;;;;;21.03;nan;101716.31;5054073;28;20116;-52
2022/07/24 06:48:19;;;;;;;3.50;3.20;;;;;;;21.33;nan;101735.00;5069483;28;20047;-53
2022/07/24 06:50:45;;;;;;;3.47;3.17;;;;;;;21.05;nan;101680.47;5053860;28;20029;-55
2022/07/24 06:53:10;;;;;;;2.80;2.42;;;;;;;21.01;nan;101688.78;5054081;28;20126;-55
2022/07/24 06:55:35;;;;;;;5.15;2.95;;;;;;;21.14;nan;101730.78;5053840;28;20132;-55
2022/07/24 06:58:01;;;;;;;3.75;3.00;;;;;;;20.97;nan;101722.91;5053932;28;20044;-52
2022/07/24 07:00:26;;;;;;;3.42;2.72;;;;;;;20.61;nan;101667.16;5053807;28;20045;-50
2022/07/24 07:02:51;;;;;;;3.67;3.13;;;;;;;20.92;nan;101735.72;5053583;28;20035;-55
2022/07/24 07:05:18;;;;;;;4.13;2.90;;;;;;;21.00;nan;101717.38;5053414;28;20033;-51
2022/07/24 07:07:43;;;;;;;2.40;2.20;;;;;;;20.90;nan;101660.00;5053840;28;20032;-51
2022/07/24 07:10:09;;;;;;;3.55;2.17;;;;;;;21.37;nan;101697.19;5053779;28;20028;-52
2022/07/24 07:12:34;;;;;;;3.22;2.53;;;;;;;21.60;nan;101731.41;5069140;28;20033;-56
2022/07/24 07:15:00;;;;;;;2.88;2.63;;;;;;;21.61;nan;101718.88;5069128;28;20151;-52
2022/07/24 07:17:26;;;;;;;3.28;2.97;;;;;;;21.64;nan;101716.88;5053496;28;20413;-55
2022/07/24 07:19:51;;;;;;;3.38;2.45;;;;;;;21.72;nan;101711.88;5053338;28;20116;-52
2022/07/24 07:22:16;;;;;;;2.67;2.25;;;;;;;21.89;nan;101709.97;5052989;28;20121;-55
2022/07/24 07:24:41;;;;;;;5.03;2.20;;;;;;;22.16;nan;101748.34;5053363;28;20083;-52
2022/07/24 07:27:07;;;;;;;2.63;2.00;;;;;;;22.28;nan;101736.78;5051990;28;20033;-54
2022/07/24 07:29:32;;;;;;;3.17;2.25;;;;;;;22.44;nan;101743.69;5053279;28;20082;-56
2022/07/24 07:31:57;;;;;;;2.50;2.05;;;;;;;22.59;nan;101740.97;5053254;28;20029;-53
2022/07/24 07:34:23;;;;;;;3.03;2.40;;;;;;;22.79;nan;101745.84;5052611;28;20091;-56
2022/07/24 07:36:48;;;;;;;2.25;1.95;;;;;;;23.22;nan;101747.25;5068638;28;20036;-54
2022/07/24 07:39:13;;;;;;;2.53;2.08;;;;;;;23.77;nan;101757.59;5051684;28;20403;-55
2022/07/24 07:41:39;;;;;;;2.00;1.80;;;;;;;24.03;nan;101751.16;5053057;28;20029;-58
2022/07/24 07:44:04;;;;;;;3.80;2.67;;;;;;;23.77;nan;101717.28;5067893;28;20033;-55
2022/07/24 07:46:30;;;;;;;3.70;3.28;;;;;;;23.62;nan;101691.53;5052551;28;20029;-58
2022/07/24 07:48:55;;;;;;;2.25;2.05;;;;;;;23.77;nan;101738.78;5068227;28;20377;-54
2022/07/24 07:51:21;;;;;;;2.10;1.90;;;;;;;23.53;nan;101701.13;5052610;28;20456;-53
2022/07/24 07:53:46;;;;;;;2.17;1.98;;;;;;;24.17;nan;101736.72;5051473;28;20127;-59
2022/07/24 07:56:11;;;;;;;2.38;2.17;;;;;;;24.63;nan;101696.41;5052801;28;20052;-56
2022/07/24 07:58:37;;;;;;;2.70;1.95;;;;;;;25.53;nan;101757.50;5052888;28;20037;-54
2022/07/24 08:01:02;;;;;;;1.70;1.60;;;;;;;26.20;nan;101751.03;5052766;28;20093;-50
2022/07/24 08:03:27;;;;;;;3.65;1.90;;;;;;;26.41;nan;101713.28;5052211;28;20040;-54
2022/07/24 08:05:53;;;;;;;5.15;1.60;;;;;;;27.00;nan;101767.56;5052505;28;20071;-55
2022/07/24 08:08:18;;;;;;;3.17;1.67;;;;;;;27.45;nan;101759.16;5052469;28;20033;-56
2022/07/24 08:10:43;;;;;;;1.90;1.65;;;;;;;27.87;nan;101761.56;5052454;28;20041;-59
2022/07/24 08:13:09;;;;;;;4.40;2.42;;;;;;;28.33;nan;101760.13;5052255;28;20984;-55
2022/07/24 08:15:34;;;;;;;2.80;1.70;;;;;;;28.25;nan;101770.81;5052174;28;20040;-56
2022/07/24 08:17:59;;;;;;;3.00;1.73;;;;;;;28.55;nan;101770.66;5051973;28;20114;-55
2022/07/24 08:20:26;;;;;;;2.28;1.40;;;;;;;28.52;nan;101770.13;5052355;28;20033;-56
2022/07/24 08:22:51;;;;;;;3.03;1.50;;;;;;;28.47;nan;101746.16;5051899;28;20045;-57
2022/07/24 08:25:17;;;;;;;2.08;1.52;;;;;;;28.80;nan;101739.44;5052219;28;20131;-56
2022/07/24 08:27:42;;;;;;;2.20;1.65;;;;;;;28.83;nan;101737.31;5052382;28;20396;-52
2022/07/24 08:30:09;;;;;;;3.13;1.67;;;;;;;28.60;nan;101762.13;5052248;28;20473;-57
2022/07/24 08:32:34;;;;;;;1.90;1.70;;;;;;;28.27;nan;101768.81;5067790;28;20029;-55
2022/07/24 08:35:00;;;;;;;2.70;1.63;;;;;;;28.41;nan;101780.06;5051932;28;20039;-57
2022/07/24 08:37:25;;;;;;;3.42;1.67;;;;;;;28.66;nan;101715.53;5051895;28;20035;-52
2022/07/24 08:39:50;;;;;;;3.05;1.67;;;;;;;28.75;nan;101742.56;5052314;28;20064;-56
2022/07/24 08:42:16;;;;;;;1.77;1.60;;;;;;;28.54;nan;101736.47;5051820;28;20419;-55
2022/07/24 08:44:41;;;;;;;3.03;1.92;;;;;;;28.73;nan;101766.25;5052131;28;20110;-54
2022/07/24 08:47:10;;;;;;;3.30;1.75;;;;;;;28.93;nan;101773.34;5052106;28;20040;-57
2022/07/24 08:49:36;;;;;;;3.08;1.85;;;;;;;29.10;nan;101728.38;5052038;28;20087;-56
2022/07/24 08:52:04;;;;;;;1.85;1.60;;;;;;;29.28;nan;101725.75;5067688;28;20037;-56
2022/07/24 08:54:30;;;;;;;1.67;1.40;;;;;;;29.68;nan;101769.72;5067507;28;20029;-56
2022/07/24 08:56:56;;;;;;;3.53;1.88;;;;;;;29.46;nan;101718.53;5069753;28;20391;-55
2022/07/24 08:59:22;;;;;;;2.60;1.98;;;;;;;29.85;nan;101752.66;5054904;28;20029;-55
2022/07/24 09:01:48;;;;;;;5.57;1.75;;;;;;;29.59;nan;101727.19;5056138;28;20037;-54
2022/07/24 09:04:40;;;;;;;2.72;1.92;;;;;;;29.67;nan;101759.00;5071268;28;20037;-56
2022/07/24 09:07:26;;;;;;;2.00;1.80;;;;;;;29.90;nan;101760.31;5056108;28;20112;-56
2022/07/24 09:10:17;;;;;;;3.97;2.00;;;;;;;29.95;nan;101752.56;5055317;28;20479;-57
2022/07/24 09:12:45;;;;;;;2.50;1.70;;;;;;;30.13;nan;101732.56;5053311;28;20049;-54
2022/07/24 09:15:17;;;;;;;2.00;1.65;;;;;;;30.07;nan;101754.06;5071295;28;20127;-55
2022/07/24 09:17:53;;;;;;;1.77;1.65;;;;;;;30.20;nan;101769.97;5056051;28;20032;-52
2022/07/24 09:20:20;;;;;;;1.83;1.70;;;;;;;29.81;nan;101685.22;5071109;28;20025;-57
2022/07/24 09:22:45;;;;;;;1.60;1.50;;;;;;;30.08;nan;101728.63;5055520;28;20412;-52
2022/07/24 09:25:15;;;;;;;1.90;1.75;;;;;;;30.37;nan;101769.13;5055575;28;20032;-52
2022/07/24 09:27:44;;;;;;;1.67;1.55;;;;;;;30.99;nan;101760.03;5055733;28;20036;-55
2022/07/24 09:30:21;;;;;;;2.00;1.70;;;;;;;30.92;nan;101716.28;5055742;28;20036;-53
2022/07/24 09:32:52;;;;;;;1.70;1.60;;;;;;;31.36;nan;101760.59;5055509;28;20195;-57
2022/07/24 09:35:17;;;;;;;2.75;1.30;;;;;;;31.37;nan;101766.88;5055175;28;20434;-51
2022/07/24 09:37:53;;;;;;;1.67;1.58;;;;;;;31.49;nan;101754.75;5055632;28;20044;-56
2022/07/24 09:40:18;;;;;;;3.88;2.30;;;;;;;31.44;nan;101724.38;5055714;28;20045;-53
2022/07/24 09:42:44;;;;;;;2.03;1.77;;;;;;;31.66;nan;101753.78;5055470;28;20037;-59
2022/07/24 09:45:10;;;;;;;1.80;1.60;;;;;;;31.77;nan;101761.66;5070411;28;20421;-57
2022/07/24 09:47:36;;;;;;;2.75;1.60;;;;;;;31.94;nan;101724.41;5070460;28;20501;-52
2022/07/24 09:50:13;;;;;;;2.85;2.10;;;;;;;32.19;nan;101720.78;5070377;28;20499;-54
2022/07/24 09:52:41;;;;;;;2.65;2.05;;;;;;;32.30;nan;101739.50;5070468;28;20087;-53
2022/07/24 09:55:19;;;;;;;2.70;1.70;;;;;;;32.27;nan;101746.16;5070541;28;20099;-56
2022/07/24 09:57:45;;;;;;;2.20;1.75;;;;;;;32.38;nan;101755.00;5055109;28;20029;-57
2022/07/24 10:00:10;;;;;;;2.40;1.85;;;;;;;32.75;nan;101753.50;5055063;28;20393;-54
2022/07/24 10:02:36;;;;;;;3.10;1.90;;;;;;;32.68;nan;101741.59;5053771;28;20087;-58
2022/07/24 10:05:03;;;;;;;1.75;1.60;;;;;;;32.49;nan;101741.88;5070437;28;20033;-55
2022/07/24 10:07:29;;;;;;;2.92;1.77;;;;;;;32.55;nan;101749.41;5052842;28;20049;-55
2022/07/24 10:09:57;;;;;;;3.75;1.60;;;;;;;32.65;nan;101757.44;5054794;28;20037;-55
2022/07/24 10:12:25;;;;;;;2.30;1.67;;;;;;;32.78;nan;101733.19;5053547;28;20044;-57
2022/07/24 10:14:52;;;;;;;2.47;1.60;;;;;;;32.98;nan;101748.19;5070004;28;20033;-52
2022/07/24 10:17:18;;;;;;;1.75;1.65;;;;;;;33.17;nan;101749.72;5054676;28;20037;-59
2022/07/24 10:19:46;;;;;;;2.15;1.83;;;;;;;33.25;nan;101757.88;5070074;28;20040;-59
2022/07/24 10:22:14;;;;;;;1.73;1.60;;;;;;;33.38;nan;101729.00;5054704;28;20037;-57
2022/07/24 10:25:07;;;;;;;2.90;1.70;;;;;;;33.70;nan;101744.44;5069588;28;20060;-52
2022/07/24 10:27:35;;;;;;;1.95;1.85;;;;;;;33.72;nan;101730.59;5054114;28;20366;-58
2022/07/24 10:30:04;;;;;;;1.65;1.55;;;;;;;33.65;nan;101694.13;5069715;28;20108;-54
2022/07/24 10:32:32;;;;;;;2.17;1.80;;;;;;;33.84;nan;101686.31;5053851;28;20029;-55
2022/07/24 10:35:16;;;;;;;2.60;1.83;;;;;;;34.29;nan;101742.03;5069335;28;20025;-53
2022/07/24 10:37:47;;;;;;;2.45;1.65;;;;;;;34.21;nan;101736.66;5069572;28;20025;-54
2022/07/24 10:40:20;;;;;;;1.73;1.63;;;;;;;34.27;nan;101735.88;5052484;28;20385;-55
2022/07/24 10:43:04;;;;;;;1.92;1.70;;;;;;;34.39;nan;101729.81;5053847;28;20025;-53
2022/07/24 10:45:31;;;;;;;2.60;1.63;;;;;;;34.34;nan;101742.34;5053642;28;20036;-53
2022/07/24 10:47:56;;;;;;;1.90;1.77;;;;;;;34.53;nan;101717.25;5069286;28;20119;-54
2022/07/24 10:50:22;;;;;;;1.60;1.50;;;;;;;34.45;nan;101687.22;5053709;28;20548;-52
2022/07/24 10:52:47;;;;;;;2.92;1.80;;;;;;;34.71;nan;101731.44;5054307;28;20048;-55
2022/07/24 10:55:22;;;;;;;2.92;2.30;;;;;;;34.30;nan;101670.78;5053977;28;20127;-57
2022/07/24 10:57:50;;;;;;;3.95;1.80;;;;;;;34.63;nan;101711.53;5053678;28;20021;-52
2022/07/24 11:00:31;;;;;;;1.77;1.65;;;;;;;34.58;nan;101703.91;5069188;28;20116;-58
2022/07/24 11:03:00;;;;;;;;;;;;;;;34.45;nan;101715.41;5054075;28;20063;-54
2022/07/24 11:05:29;;;;;;;3.22;1.90;;;;;;;34.31;nan;101672.50;5053868;28;19938;-57
2022/07/24 11:08:29;;;;;;;3.90;2.38;;;;;;;34.56;nan;101714.13;5053793;28;20025;-55
2022/07/24 11:10:58;;;;;;;3.80;2.08;;;;;;;34.34;nan;101683.06;5068405;28;20083;-57
2022/07/24 11:13:32;;;;;;;3.60;2.13;;;;;;;34.60;nan;101728.31;5053508;28;20031;-56
2022/07/24 11:16:09;;;;;;;4.88;2.08;;;;;;;34.71;nan;101716.91;5053720;28;20108;-57
2022/07/24 11:18:36;;;;;;;2.00;1.80;;;;;;;34.56;nan;101697.72;5053520;28;20033;-55
2022/07/24 11:21:01;;;;;;;2.88;1.90;;;;;;;34.78;nan;101717.88;5069290;28;20033;-59
2022/07/24 11:23:26;;;;;;;1.98;1.83;;;;;;;34.69;nan;101705.31;5068441;28;20059;-60
2022/07/24 11:26:30;;;;;;;3.33;2.20;;;;;;;34.59;nan;101707.50;5053323;28;20048;-58
2022/07/24 11:29:17;;;;;;;3.40;2.05;;;;;;;34.81;nan;101706.56;5052023;28;20031;-60
2022/07/24 11:31:44;;;;;;;2.80;2.20;;;;;;;35.25;nan;101698.41;5053270;28;20033;-60
2022/07/24 11:34:10;;;;;;;3.17;2.10;;;;;;;35.54;nan;101704.72;5068554;28;20036;-60
2022/07/24 11:36:36;;;;;;;3.00;2.10;;;;;;;35.41;nan;101657.97;5068454;28;20469;-60